Terminal Aerodrome Forecast
Issued by NWS

Home | Current Version | Previous Version | Text Only | Print | Product List | Glossary On
Versions: 1 2 3 4 5 6 7 8 9 10 11 12 13 14 15 16 17 18 19 20 21 22 23 24 25 26 27 28 29 30 31 32 33
000
FTUS42 KFFC 201127
TAFFTY
TAF
KFTY 201127Z 2012/2112 VRB03KT 6SM BR SCT040
     FM201400 08006KT P6SM FEW040 SCT250
     FM210100 10005KT P6SM SKC
     FM210900 07004KT P6SM SCT020 SCT035
     FM211100 06004KT P6SM SCT012 BKN020=

USA.gov is the U.S. government's official web portal to all federal, state and local government web resources and services.